createdAt,value
2023-02-02T00:01:35.018Z,3.77
2023-02-02T00:04:02.329Z,3.10
2023-02-02T00:06:31.097Z,3.43
2023-02-02T00:09:00.285Z,3.33
2023-02-02T00:11:27.670Z,3.37
2023-02-02T00:13:54.896Z,3.20
2023-02-02T00:16:30.970Z,3.80
2023-02-02T00:19:00.551Z,3.40
2023-02-02T00:21:28.142Z,3.60
2023-02-02T00:23:54.988Z,4.23
2023-02-02T00:26:22.045Z,3.30
2023-02-02T00:28:48.862Z,4.13
2023-02-02T00:31:15.720Z,4.13
2023-02-02T00:33:49.795Z,4.20
2023-02-02T00:36:17.941Z,4.13
2023-02-02T00:38:45.960Z,4.00
2023-02-02T00:41:12.819Z,3.30
2023-02-02T00:43:39.598Z,4.30
2023-02-02T00:46:06.636Z,4.67
2023-02-02T00:48:33.648Z,3.90
2023-02-02T00:51:02.221Z,5.07
2023-02-02T00:53:29.098Z,4.77
2023-02-02T00:55:55.883Z,3.97
2023-02-02T00:58:22.651Z,4.10
2023-02-02T01:00:49.474Z,4.13
2023-02-02T01:03:16.336Z,5.33
2023-02-02T01:05:43.128Z,4.13
2023-02-02T01:08:10.563Z,4.50
2023-02-02T01:10:37.440Z,5.40
2023-02-02T01:13:04.296Z,5.57
2023-02-02T01:15:31.276Z,5.63
2023-02-02T01:17:58.419Z,5.83
2023-02-02T01:20:25.882Z,5.50
2023-02-02T01:22:52.988Z,6.77
2023-02-02T01:25:19.886Z,5.87
2023-02-02T01:27:46.701Z,5.00
2023-02-02T01:30:13.978Z,5.83
2023-02-02T01:32:40.777Z,5.30
2023-02-02T01:35:07.988Z,6.50
2023-02-02T01:37:34.914Z,5.50
2023-02-02T01:40:01.797Z,5.50
2023-02-02T01:42:28.673Z,5.87
2023-02-02T01:45:04.372Z,5.57
2023-02-02T01:47:35.616Z,5.23
2023-02-02T01:50:04.145Z,5.20
2023-02-02T01:52:32.986Z,5.97
2023-02-02T01:55:04.465Z,4.63
2023-02-02T01:57:39.931Z,5.40
2023-02-02T02:00:12.415Z,4.80
2023-02-02T02:02:41.201Z,5.07
2023-02-02T02:05:09.140Z,4.43
2023-02-02T02:07:35.970Z,6.30
2023-02-02T02:10:03.285Z,5.10
2023-02-02T02:12:30.083Z,5.23
2023-02-02T02:15:15.645Z,5.43
2023-02-02T02:18:04.184Z,5.83
2023-02-02T02:21:07.933Z,6.23
2023-02-02T02:24:28.608Z,5.63
2023-02-02T02:27:01.219Z,6.07
2023-02-02T02:29:55.564Z,5.07
2023-02-02T02:32:28.347Z,5.73
2023-02-02T02:35:09.880Z,5.53
2023-02-02T02:37:54.622Z,6.07
2023-02-02T02:40:27.320Z,6.37
2023-02-02T02:42:59.248Z,6.33
2023-02-02T02:45:28.189Z,5.53
2023-02-02T02:47:55.483Z,5.63
2023-02-02T02:50:22.986Z,6.37
2023-02-02T02:53:02.428Z,7.30
2023-02-02T02:55:38.584Z,5.17
2023-02-02T02:58:14.129Z,5.70
2023-02-02T03:00:44.550Z,5.77
2023-02-02T03:03:26.744Z,4.93
2023-02-02T03:06:19.767Z,5.47
2023-02-02T03:08:53.916Z,5.27
2023-02-02T03:11:21.377Z,4.50
2023-02-02T03:13:48.927Z,5.67
2023-02-02T03:16:16.698Z,6.10
2023-02-02T03:18:43.979Z,5.47
2023-02-02T03:21:10.916Z,7.53
2023-02-02T03:23:38.774Z,5.77
2023-02-02T03:26:05.929Z,5.63
2023-02-02T03:28:33.084Z,5.87
2023-02-02T03:31:01.558Z,5.30
2023-02-02T03:33:30.025Z,5.73
2023-02-02T03:35:56.799Z,6.20
2023-02-02T03:38:23.616Z,5.80
2023-02-02T03:40:51.910Z,5.70
2023-02-02T03:43:25.164Z,6.43
2023-02-02T03:46:06.896Z,6.30
2023-02-02T03:48:38.211Z,6.93
2023-02-02T03:51:11.732Z,6.03
2023-02-02T03:53:39.406Z,6.57
2023-02-02T03:56:07.047Z,6.93
2023-02-02T03:58:42.803Z,6.37
2023-02-02T04:01:13.437Z,6.00
2023-02-02T04:03:40.483Z,6.80
2023-02-02T04:06:07.350Z,6.20
2023-02-02T04:08:34.596Z,6.10
2023-02-02T04:11:01.551Z,7.00
2023-02-02T04:13:28.400Z,5.83
2023-02-02T04:16:01.606Z,7.17
2023-02-02T04:18:29.467Z,6.53
2023-02-02T04:21:00.993Z,6.97
2023-02-02T04:23:29.088Z,6.07
2023-02-02T04:25:56.691Z,5.60
2023-02-02T04:28:24.222Z,7.43
2023-02-02T04:30:52.381Z,5.83
2023-02-02T04:33:20.110Z,5.87
2023-02-02T04:35:46.968Z,5.37
2023-02-02T04:38:13.833Z,5.43
2023-02-02T04:40:42.832Z,3.93
2023-02-02T04:43:10.361Z,5.07
2023-02-02T04:45:37.268Z,4.03
2023-02-02T04:48:04.812Z,4.60
2023-02-02T04:50:32.090Z,3.70
2023-02-02T04:52:58.874Z,4.60
2023-02-02T04:55:26.037Z,4.50
2023-02-02T04:57:52.996Z,5.17
2023-02-02T05:00:20.132Z,5.43
2023-02-02T05:02:46.983Z,6.00
2023-02-02T05:05:14.460Z,5.23
2023-02-02T05:07:41.399Z,5.33
2023-02-02T05:10:09.892Z,5.57
2023-02-02T05:12:36.802Z,4.63
2023-02-02T05:15:05.622Z,5.37
2023-02-02T05:17:33.331Z,4.03
2023-02-02T05:20:00.443Z,6.00
2023-02-02T05:22:27.405Z,5.07
2023-02-02T05:24:54.279Z,4.97
2023-02-02T05:27:21.139Z,5.50
2023-02-02T05:29:48.316Z,4.97
2023-02-02T05:32:15.332Z,5.30
2023-02-02T05:34:42.392Z,5.00
2023-02-02T05:37:09.243Z,4.73
2023-02-02T05:39:36.063Z,5.30
2023-02-02T05:42:02.893Z,5.17
2023-02-02T05:44:29.646Z,5.73
2023-02-02T05:46:56.398Z,5.63
2023-02-02T05:49:23.148Z,5.97
2023-02-02T05:51:57.308Z,4.77
2023-02-02T05:54:24.920Z,5.07
2023-02-02T05:56:54.562Z,5.37
2023-02-02T05:59:21.868Z,5.30
2023-02-02T06:01:49.045Z,5.73
2023-02-02T06:04:16.407Z,5.90
2023-02-02T06:06:43.992Z,5.00
2023-02-02T06:09:11.159Z,4.10
2023-02-02T06:11:39.530Z,4.87
2023-02-02T06:14:07.225Z,4.77
2023-02-02T06:16:34.127Z,4.63
2023-02-02T06:19:01.010Z,4.40
2023-02-02T06:21:31.145Z,5.50
2023-02-02T06:23:58.878Z,5.13
2023-02-02T06:26:26.455Z,4.93
2023-02-02T06:28:54.441Z,4.50
2023-02-02T06:31:22.398Z,4.70
2023-02-02T06:33:54.545Z,4.83
2023-02-02T06:36:21.529Z,4.53
2023-02-02T06:38:55.757Z,4.87
2023-02-02T06:41:23.211Z,4.43
2023-02-02T06:43:50.318Z,4.90
2023-02-02T06:46:17.599Z,5.07
2023-02-02T06:49:04.440Z,5.17
2023-02-02T06:51:32.104Z,5.60
2023-02-02T06:53:59.641Z,4.53
2023-02-02T06:56:26.687Z,5.90
2023-02-02T06:58:53.458Z,4.93
2023-02-02T07:01:20.451Z,5.83
2023-02-02T07:03:51.269Z,5.80
2023-02-02T07:06:24.643Z,6.03
2023-02-02T07:09:02.248Z,5.70
2023-02-02T07:11:32.583Z,6.67
2023-02-02T07:14:00.565Z,5.77
2023-02-02T07:16:27.488Z,6.33
2023-02-02T07:18:54.399Z,6.93
2023-02-02T07:21:28.293Z,6.50
2023-02-02T07:23:55.202Z,6.10
2023-02-02T07:26:21.994Z,6.60
2023-02-02T07:28:48.790Z,6.47
2023-02-02T07:31:21.531Z,6.73
2023-02-02T07:33:49.019Z,6.13
2023-02-02T07:36:18.074Z,6.40
2023-02-02T07:38:46.321Z,6.90
2023-02-02T07:41:14.074Z,6.30
2023-02-02T07:43:41.047Z,5.73
2023-02-02T07:46:10.557Z,6.90
2023-02-02T07:48:37.781Z,5.33
2023-02-02T07:51:07.338Z,6.07
2023-02-02T07:53:35.099Z,7.10
2023-02-02T07:56:10.704Z,6.37
2023-02-02T07:58:37.498Z,5.60
2023-02-02T08:01:07.154Z,6.67
2023-02-02T08:03:35.272Z,6.53
2023-02-02T08:06:08.514Z,5.33
2023-02-02T08:08:35.424Z,6.10
2023-02-02T08:11:02.233Z,5.67
2023-02-02T08:13:29.099Z,6.40
2023-02-02T08:15:58.524Z,6.53
2023-02-02T08:18:25.585Z,5.70
2023-02-02T08:20:52.789Z,5.80
2023-02-02T08:23:23.610Z,5.30
2023-02-02T08:25:51.243Z,5.20
2023-02-02T08:28:19.021Z,6.67
2023-02-02T08:30:46.688Z,7.63
2023-02-02T08:33:14.679Z,6.20
2023-02-02T08:35:42.975Z,6.83
2023-02-02T08:38:10.686Z,5.43
2023-02-02T08:40:37.498Z,6.67
2023-02-02T08:43:04.972Z,6.23
2023-02-02T08:46:04.204Z,7.27
2023-02-02T08:48:21.300Z,6.13
2023-02-02T08:50:59.060Z,6.30
2023-02-02T08:53:26.978Z,6.83
2023-02-02T08:56:09.646Z,8.00
2023-02-02T08:58:36.698Z,7.57
2023-02-02T09:01:24.851Z,7.10
2023-02-02T09:03:59.482Z,7.23
2023-02-02T09:06:33.595Z,7.43
2023-02-02T09:09:01.108Z,9.57
2023-02-02T09:11:28.883Z,7.10
2023-02-02T09:13:57.682Z,7.03
2023-02-02T09:16:25.649Z,7.17
2023-02-02T09:18:52.885Z,7.57
2023-02-02T09:21:20.373Z,7.60
2023-02-02T09:23:48.672Z,7.63
2023-02-02T09:26:18.999Z,8.37
2023-02-02T09:28:51.744Z,7.93
2023-02-02T09:31:19.018Z,8.67
2023-02-02T09:33:45.936Z,8.67
2023-02-02T09:36:16.965Z,7.60
2023-02-02T09:38:44.611Z,7.87
2023-02-02T09:41:29.723Z,7.43
2023-02-02T09:44:34.272Z,6.90
2023-02-02T09:47:39.933Z,7.13
2023-02-02T09:50:12.858Z,6.77
2023-02-02T09:52:43.858Z,6.93
2023-02-02T09:55:20.923Z,6.10
2023-02-02T09:57:52.678Z,7.10
2023-02-02T10:00:35.151Z,6.83
2023-02-02T10:03:11.106Z,7.00
2023-02-02T10:06:02.705Z,7.50
2023-02-02T10:08:52.389Z,7.00
2023-02-02T10:11:34.507Z,6.73
2023-02-02T10:14:07.627Z,6.53
2023-02-02T10:16:37.655Z,7.33
2023-02-02T10:19:14.905Z,7.87
2023-02-02T10:21:51.816Z,7.20
2023-02-02T10:24:26.397Z,6.70
2023-02-02T10:27:04.504Z,7.33
2023-02-02T10:29:49.070Z,7.17
2023-02-02T10:32:25.149Z,7.60
2023-02-02T10:35:12.964Z,8.30
2023-02-02T10:38:00.752Z,8.47
2023-02-02T10:40:27.895Z,6.53
2023-02-02T10:43:13.815Z,7.07
2023-02-02T10:45:43.563Z,6.50
2023-02-02T10:48:22.116Z,7.43
2023-02-02T10:50:53.921Z,7.17
2023-02-02T10:53:22.600Z,5.50
2023-02-02T10:56:11.767Z,6.23
2023-02-02T10:58:41.667Z,7.43
2023-02-02T11:01:14.980Z,7.50
2023-02-02T11:03:42.154Z,6.67
2023-02-02T11:06:30.551Z,6.60
2023-02-02T11:08:59.687Z,7.47
2023-02-02T11:11:46.979Z,6.73
2023-02-02T11:14:20.994Z,7.03
2023-02-02T11:17:02.526Z,6.97
2023-02-02T11:19:31.260Z,6.47
2023-02-02T11:22:00.884Z,7.03
2023-02-02T11:24:49.669Z,6.27
2023-02-02T11:27:38.227Z,6.53
2023-02-02T11:30:32.511Z,6.93
2023-02-02T11:32:59.424Z,7.23
2023-02-02T11:35:29.729Z,6.87
2023-02-02T11:38:08.149Z,7.23
2023-02-02T11:40:46.216Z,5.93
2023-02-02T11:43:20.801Z,6.67
2023-02-02T11:45:53.957Z,6.60
2023-02-02T11:48:24.701Z,7.93
2023-02-02T11:50:54.732Z,6.63
2023-02-02T11:53:33.112Z,5.70
2023-02-02T11:56:05.786Z,6.23
2023-02-02T11:58:50.985Z,5.87
2023-02-02T12:01:32.614Z,6.83
2023-02-02T12:04:01.958Z,6.00
2023-02-02T12:06:39.129Z,5.97
2023-02-02T12:09:21.660Z,6.60
2023-02-02T12:12:06.911Z,5.57
2023-02-02T12:14:46.662Z,5.67
2023-02-02T12:17:31.843Z,6.63
2023-02-02T12:20:17.452Z,5.30
2023-02-02T12:22:53.277Z,5.43
2023-02-02T12:25:42.243Z,6.73
2023-02-02T12:28:43.152Z,7.53
2023-02-02T12:31:41.491Z,5.97
2023-02-02T12:34:36.667Z,5.80
2023-02-02T12:37:11.028Z,6.13
2023-02-02T12:39:56.393Z,6.97
2023-02-02T12:42:23.130Z,6.30
2023-02-02T12:45:04.995Z,5.47
2023-02-02T12:47:53.402Z,5.10
2023-02-02T12:51:16.793Z,5.70
2023-02-02T12:54:35.184Z,5.60
2023-02-02T12:56:54.589Z,5.77
2023-02-02T12:59:27.604Z,5.57
2023-02-02T13:01:54.409Z,5.67
2023-02-02T13:04:34.894Z,5.37
2023-02-02T13:07:21.427Z,6.07
2023-02-02T13:09:59.423Z,5.93
2023-02-02T13:12:28.404Z,5.63
2023-02-02T13:15:02.770Z,5.70
2023-02-02T13:17:36.402Z,5.60
2023-02-02T13:20:07.574Z,5.47
2023-02-02T13:22:43.937Z,5.30
2023-02-02T13:25:25.374Z,6.13
2023-02-02T13:27:53.595Z,5.83
2023-02-02T13:30:23.187Z,5.27
2023-02-02T13:32:53.214Z,6.10
2023-02-02T13:35:48.695Z,5.67
2023-02-02T13:38:23.851Z,6.37
2023-02-02T13:40:53.226Z,5.50
2023-02-02T13:43:43.795Z,4.93
2023-02-02T13:46:25.921Z,5.40
2023-02-02T13:49:10.973Z,5.23
2023-02-02T13:51:54.669Z,5.70
2023-02-02T13:54:44.817Z,5.90
2023-02-02T13:57:30.744Z,5.10
2023-02-02T14:00:17.370Z,5.80
2023-02-02T14:02:49.298Z,5.57
2023-02-02T14:05:30.524Z,6.70
2023-02-02T14:08:07.015Z,5.13
2023-02-02T14:10:41.335Z,6.23
2023-02-02T14:13:45.677Z,5.20
2023-02-02T14:16:38.600Z,5.30
2023-02-02T14:19:09.239Z,6.47
2023-02-02T14:21:35.998Z,6.27
2023-02-02T14:24:22.303Z,7.17
2023-02-02T14:27:00.634Z,7.10
2023-02-02T14:29:33.593Z,7.67
2023-02-02T14:32:29.321Z,6.93
2023-02-02T14:35:11.349Z,7.17
2023-02-02T14:37:59.965Z,6.77
2023-02-02T14:40:42.629Z,7.40
2023-02-02T14:43:44.742Z,6.97
2023-02-02T14:46:14.603Z,7.40
2023-02-02T14:48:47.154Z,7.90
2023-02-02T14:51:18.759Z,7.53
2023-02-02T14:54:05.876Z,7.70
2023-02-02T14:56:51.355Z,8.30
2023-02-02T14:59:31.753Z,8.73
2023-02-02T15:02:29.627Z,8.27
2023-02-02T15:05:32.935Z,8.43
2023-02-02T15:08:21.929Z,7.70
2023-02-02T15:10:53.684Z,7.73
2023-02-02T15:13:37.420Z,7.80
2023-02-02T15:16:19.995Z,8.60
2023-02-02T15:18:57.581Z,8.37
2023-02-02T15:21:26.453Z,8.13
2023-02-02T15:23:54.216Z,8.30
2023-02-02T15:26:32.909Z,9.27
2023-02-02T15:29:13.600Z,7.83
2023-02-02T15:31:44.509Z,7.93
2023-02-02T15:34:23.346Z,8.57
2023-02-02T15:36:53.772Z,9.13
2023-02-02T15:39:29.943Z,8.70
2023-02-02T15:42:17.244Z,9.27
2023-02-02T15:44:44.093Z,8.90
2023-02-02T15:47:20.091Z,10.13
2023-02-02T15:49:46.920Z,11.33
2023-02-02T15:52:27.157Z,10.30
2023-02-02T15:54:56.579Z,11.60
2023-02-02T15:57:28.439Z,11.77
2023-02-02T15:59:55.924Z,13.33
2023-02-02T16:02:36.565Z,12.87
2023-02-02T16:05:38.461Z,14.27
2023-02-02T16:08:09.468Z,13.93
2023-02-02T16:10:36.324Z,14.77
2023-02-02T16:13:03.707Z,15.83
2023-02-02T16:15:34.186Z,15.63
2023-02-02T16:18:08.016Z,17.37
2023-02-02T16:20:37.287Z,15.87
2023-02-02T16:23:11.610Z,17.57
2023-02-02T16:25:50.584Z,16.60
2023-02-02T16:28:19.367Z,17.00
2023-02-02T16:30:46.772Z,17.10
2023-02-02T16:33:29.389Z,16.73
2023-02-02T16:35:56.860Z,16.17
2023-02-02T16:38:24.285Z,17.80
2023-02-02T16:41:02.108Z,19.48
2023-02-02T16:43:30.267Z,17.93
2023-02-02T16:46:01.348Z,17.90
2023-02-02T16:48:29.413Z,18.77
2023-02-02T16:51:07.729Z,18.23
2023-02-02T16:53:35.566Z,16.93
2023-02-02T16:56:04.443Z,16.87
2023-02-02T16:58:32.148Z,19.10
2023-02-02T17:01:17.293Z,15.23
2023-02-02T17:03:50.525Z,15.43
2023-02-02T17:06:17.981Z,15.60
2023-02-02T17:08:45.384Z,16.07
2023-02-02T17:11:25.983Z,15.13
2023-02-02T17:19:29.723Z,15.07
2023-02-02T17:21:57.659Z,15.53
2023-02-02T17:24:24.922Z,15.00
2023-02-02T17:26:52.313Z,15.43
2023-02-02T17:29:20.495Z,16.33
2023-02-02T17:31:47.695Z,15.20
2023-02-02T17:34:15.312Z,15.80
2023-02-02T17:36:45.646Z,15.43
2023-02-02T17:39:12.893Z,14.57
2023-02-02T17:41:40.258Z,15.70
2023-02-02T17:44:09.306Z,15.63
2023-02-02T17:46:39.726Z,15.50
2023-02-02T17:49:07.219Z,15.47
2023-02-02T17:51:41.071Z,16.40
2023-02-02T17:54:12.292Z,15.43
2023-02-02T17:56:39.540Z,15.43
2023-02-02T17:59:07.090Z,15.77
2023-02-02T18:01:38.920Z,15.03
2023-02-02T18:04:06.556Z,15.63
2023-02-02T18:06:33.842Z,15.03
2023-02-02T18:09:01.118Z,15.20
2023-02-02T18:11:28.354Z,14.57
2023-02-02T18:13:55.572Z,15.67
2023-02-02T18:16:22.875Z,14.83
2023-02-02T18:18:50.105Z,15.60
2023-02-02T18:21:17.668Z,15.67
2023-02-02T18:23:48.513Z,17.03
2023-02-02T18:26:20.046Z,18.37
2023-02-02T18:28:48.895Z,18.40
2023-02-02T18:31:18.491Z,17.43
2023-02-02T18:33:46.263Z,17.53
2023-02-02T18:36:14.924Z,18.67
2023-02-02T18:38:45.304Z,19.13
2023-02-02T18:41:12.968Z,18.90
2023-02-02T18:43:40.154Z,20.07
2023-02-02T18:46:13.525Z,19.73
2023-02-02T18:48:41.536Z,21.00
2023-02-02T18:51:09.788Z,19.30
2023-02-02T18:53:36.982Z,19.40
2023-02-02T18:56:07.628Z,18.83
2023-02-02T18:58:35.151Z,20.17
2023-02-02T19:01:08.749Z,21.60
2023-02-02T19:03:36.748Z,21.57
2023-02-02T19:06:23.843Z,19.77
2023-02-02T19:08:51.412Z,18.90
2023-02-02T19:11:20.107Z,20.20
2023-02-02T19:13:47.765Z,19.80
2023-02-02T19:16:28.743Z,20.60
2023-02-02T19:19:01.203Z,19.27
2023-02-02T19:21:31.595Z,18.90
2023-02-02T19:24:00.216Z,18.80
2023-02-02T19:26:28.124Z,18.90
2023-02-02T19:29:06.496Z,19.43
2023-02-02T19:31:33.684Z,18.83
2023-02-02T19:34:03.566Z,19.50
2023-02-02T19:36:31.566Z,19.83
2023-02-02T19:39:05.656Z,21.90
2023-02-02T19:41:38.250Z,19.33
2023-02-02T19:44:32.184Z,21.20
2023-02-02T19:47:00.464Z,20.63
2023-02-02T19:49:31.717Z,19.13
2023-02-02T19:51:59.390Z,20.17
2023-02-02T19:54:28.668Z,22.07
2023-02-02T19:57:22.159Z,21.33
2023-02-02T19:59:50.947Z,21.37
2023-02-02T20:02:39.217Z,20.70
2023-02-02T20:05:17.474Z,21.50
2023-02-02T20:07:44.887Z,21.20
2023-02-02T20:10:12.007Z,18.57
2023-02-02T20:12:39.237Z,21.60
2023-02-02T20:15:21.949Z,20.00
2023-02-02T20:17:49.159Z,21.80
2023-02-02T20:20:24.724Z,19.47
2023-02-02T20:22:52.229Z,19.83
2023-02-02T20:25:19.664Z,18.40
2023-02-02T20:27:46.875Z,18.67
2023-02-02T20:30:22.235Z,20.23
2023-02-02T20:32:51.748Z,19.10
2023-02-02T20:35:24.772Z,17.17
2023-02-02T20:37:52.166Z,16.07
2023-02-02T20:40:22.608Z,17.90
2023-02-02T20:42:50.271Z,17.63
2023-02-02T20:45:18.223Z,17.83
2023-02-02T20:47:49.097Z,18.30
2023-02-02T20:50:17.557Z,18.77
2023-02-02T20:52:45.035Z,16.67
2023-02-02T20:55:12.360Z,17.47
2023-02-02T20:57:40.326Z,17.30
2023-02-02T21:00:08.836Z,16.83
2023-02-02T21:02:36.070Z,18.53
2023-02-02T21:05:03.000Z,18.77
2023-02-02T21:07:30.730Z,16.23
2023-02-02T21:09:57.610Z,17.63
2023-02-02T21:12:25.760Z,18.77
2023-02-02T21:14:55.454Z,18.70
2023-02-02T21:17:22.472Z,17.47
2023-02-02T21:19:49.331Z,18.10
2023-02-02T21:22:16.212Z,19.13
2023-02-02T21:24:43.151Z,19.40
2023-02-02T21:27:14.276Z,17.60
2023-02-02T21:29:41.546Z,17.63
2023-02-02T21:32:08.973Z,17.17
2023-02-02T21:34:37.764Z,17.37
2023-02-02T21:37:11.025Z,19.07
2023-02-02T21:39:38.542Z,17.67
2023-02-02T21:42:08.954Z,20.48
2023-02-02T21:44:36.937Z,16.27
2023-02-02T21:47:12.733Z,15.43
2023-02-02T21:49:40.267Z,15.77
2023-02-02T21:52:13.191Z,15.70
2023-02-02T21:54:40.629Z,13.40
2023-02-02T21:57:21.505Z,12.80
2023-02-02T21:59:53.530Z,12.53
2023-02-02T22:02:29.658Z,13.00
2023-02-02T22:04:59.114Z,12.43
2023-02-02T22:07:26.484Z,14.83
2023-02-02T22:09:54.356Z,14.07
2023-02-02T22:12:23.121Z,13.73
2023-02-02T22:14:56.009Z,15.33
2023-02-02T22:17:23.274Z,14.83
2023-02-02T22:19:59.657Z,14.33
2023-02-02T22:22:27.678Z,14.07
2023-02-02T22:25:07.508Z,13.57
2023-02-02T22:27:42.295Z,14.93
2023-02-02T22:30:23.152Z,14.43
2023-02-02T22:32:50.417Z,13.80
2023-02-02T22:35:17.558Z,13.83
2023-02-02T22:37:44.859Z,13.40
2023-02-02T22:40:12.349Z,12.70
2023-02-02T22:42:39.560Z,13.90
2023-02-02T22:45:07.015Z,12.87
2023-02-02T22:47:34.164Z,14.33
2023-02-02T22:50:02.280Z,14.00
2023-02-02T22:52:29.914Z,13.83
2023-02-02T22:54:57.158Z,14.57
2023-02-02T22:57:24.006Z,13.07
2023-02-02T22:59:50.821Z,13.83
2023-02-02T23:02:17.595Z,14.00
2023-02-02T23:04:44.362Z,14.70
2023-02-02T23:07:11.224Z,14.37
2023-02-02T23:09:38.046Z,12.83
2023-02-02T23:12:05.155Z,13.23
2023-02-02T23:14:31.976Z,13.27
2023-02-02T23:16:58.757Z,14.43
2023-02-02T23:19:25.623Z,14.43
2023-02-02T23:21:52.725Z,13.57
2023-02-02T23:24:19.580Z,14.10
2023-02-02T23:26:46.363Z,13.70
2023-02-02T23:29:13.156Z,15.47
2023-02-02T23:31:40.113Z,14.53
2023-02-02T23:34:06.903Z,14.27
2023-02-02T23:36:33.701Z,13.17
2023-02-02T23:39:00.459Z,12.53
2023-02-02T23:41:27.370Z,12.93
2023-02-02T23:43:54.185Z,13.47
2023-02-02T23:46:21.296Z,12.70
2023-02-02T23:48:48.319Z,12.57
2023-02-02T23:51:15.402Z,12.30
2023-02-02T23:53:42.922Z,13.27
2023-02-02T23:56:09.923Z,12.47
2023-02-02T23:58:36.727Z,13.20
